PWSweather.com
Personal Weather Stations
Station Observations
BREAKEY01
Lévis, Breakeyville, QC G0S 1E1

LévisBreakeyville, QC G0S 1E1

Lat: 46.681, Lon: -71.224

Elevation: 328

Station Type: Davis Vantage Pro2

http://www.meteobreakey.webou.net/topic/index.php

Latest ConditionsUpdated 9:07:04 PM EDT Thursday, Aug 28, 2014
Currently Today's Max Today's Min Today's Average
Temperature 56.7°F13.7°C 68.7°F20.4°C 56.7°F13.7°C 61.9°F16.6°C
Dew Point 52.5°F11.4°C 57.7°F14.3°C 50.9°F10.5°C 54.5°F12.5°C
Winds 4.9 mph ENE7.9 kmh ENE 8.1 mph SW13.0 kmh SW - 3.8 mph 6.1 kmh
Wind Gusts 2.0 mph3.2 kmh 13.0 mph20.9 kmh - -
Humidity 86% 92% 55% 78%
Pressure 29.98 in1015.2 mb 29.98 in1015.2 mb 29.81 in1009.5 mb -
Precipitation - 0.04 in1.0 mm - -
Hour Temp Dew Point Humidity Winds Wind Gusts Pressure Precip Precip Rate Daily Precip Total
09:07 PM 56.7°F13.7°C 52.5°F11.4°C 86% 4.9 mph ENE7.9 kmh ENE 2.0 mph3.2 kmh 29.98 in1015.2 mb 0.00 in0.0 mm 0.00 in/hr0.0 mm/hr 0.04 in1.0 mm
09:02 PM 56.7°F13.7°C 52.5°F11.4°C 86% 6.0 mph E9.7 kmh E 6.9 mph11.1 kmh 29.98 in1015.2 mb 0.00 in0.0 mm 0.00 in/hr0.0 mm/hr 0.04 in1.0 mm
08:57 PM 56.7°F13.7°C 52.9°F11.6°C 87% 6.0 mph ENE9.7 kmh ENE 6.0 mph9.7 kmh 29.98 in1015.2 mb 0.00 in0.0 mm 0.00 in/hr0.0 mm/hr 0.04 in1.0 mm
08:52 PM 56.7°F13.7°C 52.9°F11.6°C 87% 6.0 mph NE9.7 kmh NE 4.0 mph6.4 kmh 29.98 in1015.2 mb 0.00 in0.0 mm 0.00 in/hr0.0 mm/hr 0.04 in1.0 mm
08:47 PM 56.7°F13.7°C 52.9°F11.6°C 87% 6.9 mph E11.1 kmh E 4.0 mph6.4 kmh 29.98 in1015.2 mb 0.00 in0.0 mm 0.00 in/hr0.0 mm/hr 0.04 in1.0 mm
08:42 PM 56.7°F13.7°C 52.9°F11.6°C 87% 6.9 mph E11.1 kmh E 8.1 mph13.0 kmh 29.98 in1015.2 mb 0.00 in0.0 mm 0.00 in/hr0.0 mm/hr 0.04 in1.0 mm
08:37 PM 56.8°F13.8°C 53.1°F11.7°C 87% 4.0 mph E6.4 kmh E 12.1 mph19.5 kmh 29.98 in1015.2 mb 0.00 in0.0 mm 0.00 in/hr0.0 mm/hr 0.04 in1.0 mm
08:32 PM 56.8°F13.8°C 53.1°F11.7°C 87% 4.0 mph ESE6.4 kmh ESE 2.9 mph4.7 kmh 29.97 in1014.9 mb 0.00 in0.0 mm 0.00 in/hr0.0 mm/hr 0.04 in1.0 mm
08:27 PM 57.0°F13.9°C 53.2°F11.8°C 87% 4.0 mph E6.4 kmh E 4.0 mph6.4 kmh 29.97 in1014.9 mb 0.00 in0.0 mm 0.00 in/hr0.0 mm/hr 0.04 in1.0 mm
08:22 PM 56.8°F13.8°C 53.1°F11.7°C 87% 4.0 mph NE6.4 kmh NE 2.9 mph4.7 kmh 29.97 in1014.9 mb 0.00 in0.0 mm 0.00 in/hr0.0 mm/hr 0.04 in1.0 mm
08:17 PM 57.0°F13.9°C 53.2°F11.8°C 87% 4.0 mph E6.4 kmh E 2.9 mph4.7 kmh 29.96 in1014.6 mb 0.00 in0.0 mm 0.00 in/hr0.0 mm/hr 0.04 in1.0 mm
08:12 PM 57.0°F13.9°C 53.2°F11.8°C 87% 4.0 mph E6.4 kmh E 4.0 mph6.4 kmh 29.96 in1014.6 mb 0.00 in0.0 mm 0.00 in/hr0.0 mm/hr 0.04 in1.0 mm
08:07 PM 57.0°F13.9°C 53.2°F11.8°C 87% 4.0 mph E6.4 kmh E 6.9 mph11.1 kmh 29.96 in1014.6 mb 0.00 in0.0 mm 0.00 in/hr0.0 mm/hr 0.04 in1.0 mm
08:02 PM 57.0°F13.9°C 53.2°F11.8°C 87% 4.0 mph E6.4 kmh E 2.9 mph4.7 kmh 29.96 in1014.6 mb 0.00 in0.0 mm 0.00 in/hr0.0 mm/hr 0.04 in1.0 mm
07:57 PM 57.0°F13.9°C 53.2°F11.8°C 87% 4.0 mph E6.4 kmh E 2.9 mph4.7 kmh 29.96 in1014.6 mb 0.00 in0.0 mm 0.00 in/hr0.0 mm/hr 0.04 in1.0 mm
07:52 PM 57.0°F13.9°C 53.2°F11.8°C 87% 4.0 mph NE6.4 kmh NE 0.9 mph1.4 kmh 29.95 in1014.2 mb 0.00 in0.0 mm 0.00 in/hr0.0 mm/hr 0.04 in1.0 mm
07:47 PM 57.0°F13.9°C 53.2°F11.8°C 87% 4.9 mph ENE7.9 kmh ENE 2.9 mph4.7 kmh 29.95 in1014.2 mb 0.00 in0.0 mm 0.00 in/hr0.0 mm/hr 0.04 in1.0 mm
07:42 PM 57.0°F13.9°C 53.2°F11.8°C 87% 4.0 mph ENE6.4 kmh ENE 4.9 mph7.9 kmh 29.94 in1013.9 mb 0.00 in0.0 mm 0.00 in/hr0.0 mm/hr 0.04 in1.0 mm
07:37 PM 57.0°F13.9°C 53.2°F11.8°C 87% 4.9 mph NE7.9 kmh NE 4.0 mph6.4 kmh 29.94 in1013.9 mb 0.00 in0.0 mm 0.00 in/hr0.0 mm/hr 0.04 in1.0 mm
07:32 PM 57.2°F14.0°C 53.4°F11.9°C 87% 4.9 mph NE7.9 kmh NE 2.9 mph4.7 kmh 29.94 in1013.9 mb 0.00 in0.0 mm 0.00 in/hr0.0 mm/hr 0.04 in1.0 mm
07:27 PM 57.2°F14.0°C 53.4°F11.9°C 87% 4.0 mph ENE6.4 kmh ENE 4.0 mph6.4 kmh 29.94 in1013.9 mb 0.00 in0.0 mm 0.00 in/hr0.0 mm/hr 0.04 in1.0 mm
07:22 PM 57.2°F14.0°C 53.4°F11.9°C 87% 2.9 mph E4.7 kmh E 6.0 mph9.7 kmh 29.94 in1013.9 mb 0.00 in0.0 mm 0.00 in/hr0.0 mm/hr 0.04 in1.0 mm
07:17 PM 57.2°F14.0°C 53.4°F11.9°C 87% 4.0 mph E6.4 kmh E 2.9 mph4.7 kmh 29.94 in1013.9 mb 0.00 in0.0 mm 0.00 in/hr0.0 mm/hr 0.04 in1.0 mm
07:12 PM 57.4°F14.1°C 53.2°F11.8°C 86% 4.0 mph E6.4 kmh E 4.0 mph6.4 kmh 29.93 in1013.5 mb 0.00 in0.0 mm 0.00 in/hr0.0 mm/hr 0.04 in1.0 mm
07:07 PM 57.4°F14.1°C 53.2°F11.8°C 86% 4.9 mph E7.9 kmh E 6.9 mph11.1 kmh 29.93 in1013.5 mb 0.00 in0.0 mm 0.00 in/hr0.0 mm/hr 0.04 in1.0 mm
07:02 PM 57.6°F14.2°C 53.4°F11.9°C 86% 4.9 mph E7.9 kmh E 4.0 mph6.4 kmh 29.93 in1013.5 mb 0.00 in0.0 mm 0.00 in/hr0.0 mm/hr 0.04 in1.0 mm
06:57 PM 57.7°F14.3°C 53.2°F11.8°C 85% 4.0 mph E6.4 kmh E 4.0 mph6.4 kmh 29.92 in1013.2 mb 0.00 in0.0 mm 0.00 in/hr0.0 mm/hr 0.04 in1.0 mm
06:52 PM 57.9°F14.4°C 53.8°F12.1°C 86% 4.0 mph ESE6.4 kmh ESE 0.9 mph1.4 kmh 29.92 in1013.2 mb 0.00 in0.0 mm 0.00 in/hr0.0 mm/hr 0.04 in1.0 mm
06:47 PM 57.9°F14.4°C 53.4°F11.9°C 85% 4.9 mph ENE7.9 kmh ENE 2.0 mph3.2 kmh 29.93 in1013.5 mb 0.00 in0.0 mm 0.00 in/hr0.0 mm/hr 0.04 in1.0 mm
06:42 PM 58.1°F14.5°C 53.6°F12.0°C 85% 4.9 mph NE7.9 kmh NE 2.9 mph4.7 kmh 29.92 in1013.2 mb 0.00 in0.0 mm 0.00 in/hr0.0 mm/hr 0.04 in1.0 mm
06:37 PM 58.3°F14.6°C 53.8°F12.1°C 85% 6.0 mph NE9.7 kmh NE 2.9 mph4.7 kmh 29.92 in1013.2 mb 0.00 in0.0 mm 0.00 in/hr0.0 mm/hr 0.04 in1.0 mm
06:32 PM 58.5°F14.7°C 54.0°F12.2°C 85% 6.9 mph ESE11.1 kmh ESE 8.1 mph13.0 kmh 29.92 in1013.2 mb 0.00 in0.0 mm 0.00 in/hr0.0 mm/hr 0.04 in1.0 mm
06:27 PM 58.6°F14.8°C 54.5°F12.5°C 86% 6.0 mph E9.7 kmh E 4.9 mph7.9 kmh 29.91 in1012.9 mb 0.00 in0.0 mm 0.00 in/hr0.0 mm/hr 0.04 in1.0 mm
06:22 PM 58.6°F14.8°C 54.1°F12.3°C 85% 6.0 mph E9.7 kmh E 10.1 mph16.3 kmh 29.91 in1012.9 mb 0.00 in0.0 mm 0.00 in/hr0.0 mm/hr 0.04 in1.0 mm
06:17 PM 59.0°F15.0°C 54.9°F12.7°C 86% 4.0 mph E6.4 kmh E 4.0 mph6.4 kmh 29.91 in1012.9 mb 0.00 in0.0 mm 0.00 in/hr0.0 mm/hr 0.04 in1.0 mm
06:12 PM 59.4°F15.2°C 55.2°F12.9°C 86% 4.0 mph ESE6.4 kmh ESE 2.0 mph3.2 kmh 29.91 in1012.9 mb 0.00 in0.0 mm 0.00 in/hr0.0 mm/hr 0.04 in1.0 mm
06:07 PM 59.5°F15.3°C 55.4°F13.0°C 86% 6.0 mph ENE9.7 kmh ENE 0.9 mph1.4 kmh 29.91 in1012.9 mb 0.00 in0.0 mm 0.00 in/hr0.0 mm/hr 0.04 in1.0 mm
06:02 PM 59.9°F15.5°C 55.4°F13.0°C 85% 4.9 mph ENE7.9 kmh ENE 4.9 mph7.9 kmh 29.91 in1012.9 mb 0.00 in0.0 mm 0.00 in/hr0.0 mm/hr 0.04 in1.0 mm
05:57 PM 60.3°F15.7°C 55.8°F13.2°C 85% 4.0 mph ENE6.4 kmh ENE 2.9 mph4.7 kmh 29.91 in1012.9 mb 0.00 in0.0 mm 0.00 in/hr0.0 mm/hr 0.04 in1.0 mm
05:52 PM 60.4°F15.8°C 55.6°F13.1°C 84% 4.0 mph ENE6.4 kmh ENE 6.0 mph9.7 kmh 29.91 in1012.9 mb 0.00 in0.0 mm 0.00 in/hr0.0 mm/hr 0.04 in1.0 mm
05:47 PM 61.0°F16.1°C 56.1°F13.4°C 84% 4.9 mph NE7.9 kmh NE 4.0 mph6.4 kmh 29.90 in1012.5 mb 0.00 in0.0 mm 0.00 in/hr0.0 mm/hr 0.04 in1.0 mm
05:42 PM 61.2°F16.2°C 56.7°F13.7°C 85% 4.9 mph E7.9 kmh E 4.9 mph7.9 kmh 29.90 in1012.5 mb 0.00 in0.0 mm 0.00 in/hr0.0 mm/hr 0.04 in1.0 mm
05:32 PM 61.5°F16.4°C 57.4°F14.1°C 86% 4.0 mph NE6.4 kmh NE 2.9 mph4.7 kmh 29.89 in1012.2 mb 0.00 in0.0 mm 0.00 in/hr0.0 mm/hr 0.04 in1.0 mm
05:27 PM 61.2°F16.2°C 56.7°F13.7°C 85% 4.9 mph E7.9 kmh E 2.0 mph3.2 kmh 29.89 in1012.2 mb 0.00 in0.0 mm 0.00 in/hr0.0 mm/hr 0.04 in1.0 mm
05:22 PM 61.2°F16.2°C 57.0°F13.9°C 86% 6.0 mph ESE9.7 kmh ESE 6.0 mph9.7 kmh 29.89 in1012.2 mb 0.00 in0.0 mm 0.00 in/hr0.0 mm/hr 0.04 in1.0 mm
05:17 PM 61.2°F16.2°C 57.2°F14.0°C 87% 4.9 mph E7.9 kmh E 4.0 mph6.4 kmh 29.89 in1012.2 mb 0.00 in0.0 mm 0.00 in/hr0.0 mm/hr 0.04 in1.0 mm
05:12 PM 61.0°F16.1°C 57.7°F14.3°C 89% 4.0 mph NE6.4 kmh NE 6.9 mph11.1 kmh 29.89 in1012.2 mb 0.00 in0.0 mm 0.00 in/hr0.0 mm/hr 0.04 in1.0 mm
05:07 PM 60.6°F15.9°C 57.4°F14.1°C 89% 4.9 mph E7.9 kmh E 2.9 mph4.7 kmh 29.88 in1011.9 mb 0.00 in0.0 mm 0.00 in/hr0.0 mm/hr 0.04 in1.0 mm
05:02 PM 60.4°F15.8°C 57.2°F14.0°C 89% 4.9 mph E7.9 kmh E 8.1 mph13.0 kmh 29.88 in1011.9 mb 0.00 in0.0 mm 0.00 in/hr0.0 mm/hr 0.04 in1.0 mm
04:57 PM 60.3°F15.7°C 56.7°F13.7°C 88% 6.0 mph NE9.7 kmh NE 6.0 mph9.7 kmh 29.88 in1011.9 mb 0.00 in0.0 mm 0.00 in/hr0.0 mm/hr 0.04 in1.0 mm
04:52 PM 60.3°F15.7°C 56.3°F13.5°C 87% 4.9 mph NE7.9 kmh NE 6.0 mph9.7 kmh 29.88 in1011.9 mb 0.04 in1.0 mm 0.00 in/hr0.0 mm/hr 0.04 in1.0 mm
04:47 PM 60.6°F15.9°C 56.5°F13.6°C 86% 4.0 mph ENE6.4 kmh ENE 6.0 mph9.7 kmh 29.88 in1011.9 mb 0.06 in1.5 mm 0.00 in/hr0.0 mm/hr 0.04 in1.0 mm
04:42 PM 61.3°F16.3°C 56.5°F13.6°C 84% 6.0 mph E9.7 kmh E 2.9 mph4.7 kmh 29.88 in1011.9 mb 0.13 in3.3 mm 0.00 in/hr0.0 mm/hr 0.04 in1.0 mm
04:37 PM 62.4°F16.9°C 56.8°F13.8°C 82% 6.0 mph NE9.7 kmh NE 8.9 mph14.3 kmh 29.88 in1011.9 mb 0.33 in8.4 mm 3.96 in/hr100.6 mm/hr 0.02 in0.5 mm
04:32 PM 63.7°F17.6°C 56.7°F13.7°C 78% 4.9 mph NE7.9 kmh NE 6.0 mph9.7 kmh 29.88 in1011.9 mb 0.00 in0.0 mm 0.00 in/hr0.0 mm/hr 0.00 in0.0 mm
04:27 PM 64.9°F18.3°C 55.8°F13.2°C 72% 4.0 mph E6.4 kmh E 4.9 mph7.9 kmh 29.87 in1011.5 mb 0.00 in0.0 mm 0.00 in/hr0.0 mm/hr 0.00 in0.0 mm
04:22 PM 66.2°F19.0°C 56.1°F13.4°C 70% 4.0 mph ESE6.4 kmh ESE 2.0 mph3.2 kmh 29.86 in1011.2 mb 0.00 in0.0 mm 0.00 in/hr0.0 mm/hr 0.00 in0.0 mm
04:17 PM 66.9°F19.4°C 54.3°F12.4°C 64% 4.0 mph NNW6.4 kmh NNW 0.9 mph1.4 kmh 29.86 in1011.2 mb 0.00 in0.0 mm 0.00 in/hr0.0 mm/hr 0.00 in0.0 mm
04:12 PM 66.6°F19.2°C 54.0°F12.2°C 64% 4.0 mph NW6.4 kmh NW 2.9 mph4.7 kmh 29.86 in1011.2 mb 0.00 in0.0 mm 0.00 in/hr0.0 mm/hr 0.00 in0.0 mm
04:07 PM 65.8°F18.8°C 53.2°F11.8°C 64% 4.9 mph W7.9 kmh W 2.9 mph4.7 kmh 29.85 in1010.8 mb 0.00 in0.0 mm 0.00 in/hr0.0 mm/hr 0.00 in0.0 mm
04:02 PM 65.7°F18.7°C 53.2°F11.8°C 64% 6.0 mph WSW9.7 kmh WSW 4.0 mph6.4 kmh 29.85 in1010.8 mb 0.00 in0.0 mm 0.00 in/hr0.0 mm/hr 0.00 in0.0 mm
03:57 PM 65.8°F18.8°C 54.5°F12.5°C 67% 6.0 mph WSW9.7 kmh WSW 4.0 mph6.4 kmh 29.85 in1010.8 mb 0.00 in0.0 mm 0.00 in/hr0.0 mm/hr 0.00 in0.0 mm
03:52 PM 66.0°F18.9°C 54.0°F12.2°C 65% 4.9 mph WNW7.9 kmh WNW 8.1 mph13.0 kmh 29.85 in1010.8 mb 0.00 in0.0 mm 0.00 in/hr0.0 mm/hr 0.00 in0.0 mm
03:47 PM 66.0°F18.9°C 54.0°F12.2°C 65% 4.0 mph W6.4 kmh W 8.1 mph13.0 kmh 29.85 in1010.8 mb 0.00 in0.0 mm 0.00 in/hr0.0 mm/hr 0.00 in0.0 mm
03:42 PM 66.0°F18.9°C 53.4°F11.9°C 64% 4.9 mph NW7.9 kmh NW 2.9 mph4.7 kmh 29.85 in1010.8 mb 0.00 in0.0 mm 0.00 in/hr0.0 mm/hr 0.00 in0.0 mm
03:37 PM 66.0°F18.9°C 53.4°F11.9°C 64% 4.0 mph WSW6.4 kmh WSW 4.0 mph6.4 kmh 29.85 in1010.8 mb 0.00 in0.0 mm 0.00 in/hr0.0 mm/hr 0.00 in0.0 mm
03:32 PM 66.0°F18.9°C 53.4°F11.9°C 64% 4.0 mph WNW6.4 kmh WNW 2.0 mph3.2 kmh 29.85 in1010.8 mb 0.00 in0.0 mm 0.00 in/hr0.0 mm/hr 0.00 in0.0 mm
03:27 PM 66.0°F18.9°C 53.1°F11.7°C 63% 4.0 mph WNW6.4 kmh WNW 2.0 mph3.2 kmh 29.85 in1010.8 mb 0.00 in0.0 mm 0.00 in/hr0.0 mm/hr 0.00 in0.0 mm
03:22 PM 65.8°F18.8°C 54.1°F12.3°C 66% 2.9 mph NW4.7 kmh NW 4.0 mph6.4 kmh 29.85 in1010.8 mb 0.00 in0.0 mm 0.00 in/hr0.0 mm/hr 0.00 in0.0 mm
03:17 PM 65.7°F18.7°C 53.2°F11.8°C 64% 2.9 mph NW4.7 kmh NW 2.0 mph3.2 kmh 29.85 in1010.8 mb 0.00 in0.0 mm 0.00 in/hr0.0 mm/hr 0.00 in0.0 mm
03:12 PM 65.5°F18.6°C 53.1°F11.7°C 64% 4.0 mph W6.4 kmh W 0.9 mph1.4 kmh 29.85 in1010.8 mb 0.00 in0.0 mm 0.00 in/hr0.0 mm/hr 0.00 in0.0 mm
03:07 PM 65.7°F18.7°C 52.3°F11.3°C 62% 4.0 mph W6.4 kmh W 4.0 mph6.4 kmh 29.85 in1010.8 mb 0.00 in0.0 mm 0.00 in/hr0.0 mm/hr 0.00 in0.0 mm
03:02 PM 65.8°F18.8°C 52.9°F11.6°C 63% 4.0 mph NW6.4 kmh NW 2.0 mph3.2 kmh 29.84 in1010.5 mb 0.00 in0.0 mm 0.00 in/hr0.0 mm/hr 0.00 in0.0 mm
02:57 PM 66.0°F18.9°C 53.1°F11.7°C 63% 4.0 mph NNW6.4 kmh NNW 0.9 mph1.4 kmh 29.84 in1010.5 mb 0.00 in0.0 mm 0.00 in/hr0.0 mm/hr 0.00 in0.0 mm
02:52 PM 66.4°F19.1°C 53.4°F11.9°C 63% 4.9 mph WNW7.9 kmh WNW 11.0 mph17.7 kmh 29.84 in1010.5 mb 0.00 in0.0 mm 0.00 in/hr0.0 mm/hr 0.00 in0.0 mm
02:47 PM 66.4°F19.1°C 52.2°F11.2°C 60% 4.0 mph WNW6.4 kmh WNW 8.9 mph14.3 kmh 29.84 in1010.5 mb 0.00 in0.0 mm 0.00 in/hr0.0 mm/hr 0.00 in0.0 mm
02:42 PM 66.4°F19.1°C 53.8°F12.1°C 64% 4.0 mph NW6.4 kmh NW 6.9 mph11.1 kmh 29.84 in1010.5 mb 0.00 in0.0 mm 0.00 in/hr0.0 mm/hr 0.00 in0.0 mm
02:37 PM 66.7°F19.3°C 53.8°F12.1°C 63% 6.0 mph NW9.7 kmh NW 2.0 mph3.2 kmh 29.84 in1010.5 mb 0.00 in0.0 mm 0.00 in/hr0.0 mm/hr 0.00 in0.0 mm
02:32 PM 67.8°F19.9°C 53.4°F11.9°C 60% 6.0 mph NW9.7 kmh NW 8.9 mph14.3 kmh 29.83 in1010.2 mb 0.00 in0.0 mm 0.00 in/hr0.0 mm/hr 0.00 in0.0 mm
02:27 PM 67.8°F19.9°C 52.9°F11.6°C 59% 6.0 mph W9.7 kmh W 8.9 mph14.3 kmh 29.83 in1010.2 mb 0.00 in0.0 mm 0.00 in/hr0.0 mm/hr 0.00 in0.0 mm
02:22 PM 66.9°F19.4°C 54.0°F12.2°C 63% 4.9 mph W7.9 kmh W 6.0 mph9.7 kmh 29.83 in1010.2 mb 0.00 in0.0 mm 0.00 in/hr0.0 mm/hr 0.00 in0.0 mm
02:17 PM 66.4°F19.1°C 53.4°F11.9°C 63% 6.0 mph W9.7 kmh W 8.1 mph13.0 kmh 29.83 in1010.2 mb 0.00 in0.0 mm 0.00 in/hr0.0 mm/hr 0.00 in0.0 mm
02:12 PM 65.8°F18.8°C 53.2°F11.8°C 64% 6.0 mph NW9.7 kmh NW 10.1 mph16.3 kmh 29.84 in1010.5 mb 0.00 in0.0 mm 0.00 in/hr0.0 mm/hr 0.00 in0.0 mm
02:07 PM 65.8°F18.8°C 52.9°F11.6°C 63% 4.9 mph WNW7.9 kmh WNW 4.0 mph6.4 kmh 29.84 in1010.5 mb 0.00 in0.0 mm 0.00 in/hr0.0 mm/hr 0.00 in0.0 mm
02:02 PM 65.7°F18.7°C 52.7°F11.5°C 63% 4.0 mph W6.4 kmh W 4.0 mph6.4 kmh 29.84 in1010.5 mb 0.00 in0.0 mm 0.00 in/hr0.0 mm/hr 0.00 in0.0 mm
01:57 PM 65.7°F18.7°C 52.7°F11.5°C 63% 4.9 mph NW7.9 kmh NW 4.0 mph6.4 kmh 29.84 in1010.5 mb 0.00 in0.0 mm 0.00 in/hr0.0 mm/hr 0.00 in0.0 mm
01:52 PM 65.7°F18.7°C 52.3°F11.3°C 62% 6.0 mph WSW9.7 kmh WSW 4.0 mph6.4 kmh 29.84 in1010.5 mb 0.00 in0.0 mm 0.00 in/hr0.0 mm/hr 0.00 in0.0 mm
01:47 PM 65.7°F18.7°C 52.7°F11.5°C 63% 8.1 mph W13.0 kmh W 2.9 mph4.7 kmh 29.83 in1010.2 mb 0.00 in0.0 mm 0.00 in/hr0.0 mm/hr 0.00 in0.0 mm
01:42 PM 65.7°F18.7°C 51.8°F11.0°C 61% 8.1 mph W13.0 kmh W 13.0 mph20.9 kmh 29.83 in1010.2 mb 0.00 in0.0 mm 0.00 in/hr0.0 mm/hr 0.00 in0.0 mm
01:37 PM 66.4°F19.1°C 51.6°F10.9°C 59% 6.9 mph WNW11.1 kmh WNW 13.0 mph20.9 kmh 29.83 in1010.2 mb 0.00 in0.0 mm 0.00 in/hr0.0 mm/hr 0.00 in0.0 mm
01:32 PM 66.9°F19.4°C 51.3°F10.7°C 57% 8.1 mph SW13.0 kmh SW 4.9 mph7.9 kmh 29.83 in1010.2 mb 0.00 in0.0 mm 0.00 in/hr0.0 mm/hr 0.00 in0.0 mm
01:27 PM 68.0°F20.0°C 51.3°F10.7°C 55% 6.9 mph W11.1 kmh W 12.1 mph19.5 kmh 29.83 in1010.2 mb 0.00 in0.0 mm 0.00 in/hr0.0 mm/hr 0.00 in0.0 mm
01:22 PM 68.7°F20.4°C 52.9°F11.6°C 57% 6.0 mph N9.7 kmh N 6.0 mph9.7 kmh 29.83 in1010.2 mb 0.00 in0.0 mm 0.00 in/hr0.0 mm/hr 0.00 in0.0 mm
01:17 PM 68.2°F20.1°C 52.3°F11.3°C 57% 6.0 mph W9.7 kmh W 6.9 mph11.1 kmh 29.83 in1010.2 mb 0.00 in0.0 mm 0.00 in/hr0.0 mm/hr 0.00 in0.0 mm
01:12 PM 67.6°F19.8°C 53.2°F11.8°C 60% 6.0 mph WSW9.7 kmh WSW 2.9 mph4.7 kmh 29.83 in1010.2 mb 0.00 in0.0 mm 0.00 in/hr0.0 mm/hr 0.00 in0.0 mm
01:07 PM 67.5°F19.7°C 51.6°F10.9°C 57% 6.0 mph WNW9.7 kmh WNW 10.1 mph16.3 kmh 29.83 in1010.2 mb 0.00 in0.0 mm 0.00 in/hr0.0 mm/hr 0.00 in0.0 mm
01:02 PM 67.3°F19.6°C 52.5°F11.4°C 59% 4.9 mph NW7.9 kmh NW 8.1 mph13.0 kmh 29.83 in1010.2 mb 0.00 in0.0 mm 0.00 in/hr0.0 mm/hr 0.00 in0.0 mm
12:57 PM 67.3°F19.6°C 51.4°F10.8°C 57% 6.0 mph WSW9.7 kmh WSW 6.0 mph9.7 kmh 29.83 in1010.2 mb 0.00 in0.0 mm 0.00 in/hr0.0 mm/hr 0.00 in0.0 mm
12:52 PM 67.5°F19.7°C 52.2°F11.2°C 58% 6.0 mph NW9.7 kmh NW 6.0 mph9.7 kmh 29.83 in1010.2 mb 0.00 in0.0 mm 0.00 in/hr0.0 mm/hr 0.00 in0.0 mm
12:47 PM 66.7°F19.3°C 52.0°F11.1°C 59% 6.0 mph NW9.7 kmh NW 8.1 mph13.0 kmh 29.83 in1010.2 mb 0.00 in0.0 mm 0.00 in/hr0.0 mm/hr 0.00 in0.0 mm
12:42 PM 66.0°F18.9°C 51.8°F11.0°C 60% 2.9 mph NW4.7 kmh NW 2.0 mph3.2 kmh 29.83 in1010.2 mb 0.00 in0.0 mm 0.00 in/hr0.0 mm/hr 0.00 in0.0 mm
12:37 PM 65.7°F18.7°C 50.9°F10.5°C 59% 2.0 mph WNW3.2 kmh WNW 4.9 mph7.9 kmh 29.83 in1010.2 mb 0.00 in0.0 mm 0.00 in/hr0.0 mm/hr 0.00 in0.0 mm
12:32 PM 65.7°F18.7°C 51.4°F10.8°C 60% 2.0 mph N3.2 kmh N 6.0 mph9.7 kmh 29.84 in1010.5 mb 0.00 in0.0 mm 0.00 in/hr0.0 mm/hr 0.00 in0.0 mm
12:27 PM 65.8°F18.8°C 51.6°F10.9°C 60% 4.0 mph NW6.4 kmh NW 2.0 mph3.2 kmh 29.84 in1010.5 mb 0.00 in0.0 mm 0.00 in/hr0.0 mm/hr 0.00 in0.0 mm
12:22 PM 66.0°F18.9°C 50.9°F10.5°C 58% 4.0 mph NW6.4 kmh NW 4.0 mph6.4 kmh 29.83 in1010.2 mb 0.00 in0.0 mm 0.00 in/hr0.0 mm/hr 0.00 in0.0 mm
12:17 PM 66.4°F19.1°C 51.6°F10.9°C 59% 4.9 mph N7.9 kmh N 4.9 mph7.9 kmh 29.83 in1010.2 mb 0.00 in0.0 mm 0.00 in/hr0.0 mm/hr 0.00 in0.0 mm
12:12 PM 66.6°F19.2°C 50.9°F10.5°C 57% 4.0 mph NNW6.4 kmh NNW 8.9 mph14.3 kmh 29.83 in1010.2 mb 0.00 in0.0 mm 0.00 in/hr0.0 mm/hr 0.00 in0.0 mm
12:07 PM 66.4°F19.1°C 52.9°F11.6°C 62% 4.0 mph WNW6.4 kmh WNW 8.9 mph14.3 kmh 29.84 in1010.5 mb 0.00 in0.0 mm 0.00 in/hr0.0 mm/hr 0.00 in0.0 mm
12:02 PM 65.8°F18.8°C 52.0°F11.1°C 61% 4.9 mph NW7.9 kmh NW 0.9 mph1.4 kmh 29.83 in1010.2 mb 0.00 in0.0 mm 0.00 in/hr0.0 mm/hr 0.00 in0.0 mm
11:57 AM 65.8°F18.8°C 51.6°F10.9°C 60% 6.0 mph NW9.7 kmh NW 4.0 mph6.4 kmh 29.84 in1010.5 mb 0.00 in0.0 mm 0.00 in/hr0.0 mm/hr 0.00 in0.0 mm
11:52 AM 66.0°F18.9°C 52.2°F11.2°C 61% 6.0 mph NW9.7 kmh NW 11.0 mph17.7 kmh 29.83 in1010.2 mb 0.00 in0.0 mm 0.00 in/hr0.0 mm/hr 0.00 in0.0 mm
11:47 AM 66.4°F19.1°C 52.2°F11.2°C 60% 4.9 mph WSW7.9 kmh WSW 6.0 mph9.7 kmh 29.83 in1010.2 mb 0.00 in0.0 mm 0.00 in/hr0.0 mm/hr 0.00 in0.0 mm
11:42 AM 66.6°F19.2°C 52.7°F11.5°C 61% 4.9 mph NW7.9 kmh NW 0.9 mph1.4 kmh 29.83 in1010.2 mb 0.00 in0.0 mm 0.00 in/hr0.0 mm/hr 0.00 in0.0 mm
11:37 AM 66.4°F19.1°C 52.5°F11.4°C 61% 4.0 mph NW6.4 kmh NW 8.1 mph13.0 kmh 29.84 in1010.5 mb 0.00 in0.0 mm 0.00 in/hr0.0 mm/hr 0.00 in0.0 mm
11:32 AM 65.8°F18.8°C 52.9°F11.6°C 63% 4.0 mph NW6.4 kmh NW 6.0 mph9.7 kmh 29.84 in1010.5 mb 0.00 in0.0 mm 0.00 in/hr0.0 mm/hr 0.00 in0.0 mm
11:27 AM 65.8°F18.8°C 52.5°F11.4°C 62% 2.9 mph WNW4.7 kmh WNW 2.9 mph4.7 kmh 29.84 in1010.5 mb 0.00 in0.0 mm 0.00 in/hr0.0 mm/hr 0.00 in0.0 mm
11:22 AM 66.0°F18.9°C 53.4°F11.9°C 64% 2.9 mph W4.7 kmh W 6.9 mph11.1 kmh 29.84 in1010.5 mb 0.00 in0.0 mm 0.00 in/hr0.0 mm/hr 0.00 in0.0 mm
11:17 AM 65.8°F18.8°C 53.2°F11.8°C 64% 4.0 mph WNW6.4 kmh WNW 0.9 mph1.4 kmh 29.84 in1010.5 mb 0.00 in0.0 mm 0.00 in/hr0.0 mm/hr 0.00 in0.0 mm
11:12 AM 65.7°F18.7°C 53.6°F12.0°C 65% 4.0 mph NW6.4 kmh NW 2.0 mph3.2 kmh 29.84 in1010.5 mb 0.00 in0.0 mm 0.00 in/hr0.0 mm/hr 0.00 in0.0 mm
11:07 AM 65.1°F18.4°C 54.0°F12.2°C 67% 4.9 mph NW7.9 kmh NW 2.0 mph3.2 kmh 29.84 in1010.5 mb 0.00 in0.0 mm 0.00 in/hr0.0 mm/hr 0.00 in0.0 mm
10:52 AM 64.9°F18.3°C 53.2°F11.8°C 66% 4.9 mph W7.9 kmh W 13.0 mph20.9 kmh 29.84 in1010.5 mb 0.00 in0.0 mm 0.00 in/hr0.0 mm/hr 0.00 in0.0 mm
10:47 AM 65.1°F18.4°C 53.4°F11.9°C 66% 4.9 mph NW7.9 kmh NW 2.9 mph4.7 kmh 29.84 in1010.5 mb 0.00 in0.0 mm 0.00 in/hr0.0 mm/hr 0.00 in0.0 mm
10:42 AM 64.9°F18.3°C 53.2°F11.8°C 66% 4.9 mph N7.9 kmh N 2.9 mph4.7 kmh 29.84 in1010.5 mb 0.00 in0.0 mm 0.00 in/hr0.0 mm/hr 0.00 in0.0 mm
10:37 AM 64.4°F18.0°C 53.6°F12.0°C 68% 4.9 mph NNW7.9 kmh NNW 6.0 mph9.7 kmh 29.84 in1010.5 mb 0.00 in0.0 mm 0.00 in/hr0.0 mm/hr 0.00 in0.0 mm
10:32 AM 64.2°F17.9°C 52.7°F11.5°C 66% 6.0 mph W9.7 kmh W 4.0 mph6.4 kmh 29.85 in1010.8 mb 0.00 in0.0 mm 0.00 in/hr0.0 mm/hr 0.00 in0.0 mm
10:27 AM 64.8°F18.2°C 52.7°F11.5°C 65% 6.0 mph W9.7 kmh W 2.0 mph3.2 kmh 29.84 in1010.5 mb 0.00 in0.0 mm 0.00 in/hr0.0 mm/hr 0.00 in0.0 mm
10:22 AM 64.8°F18.2°C 54.0°F12.2°C 68% 6.0 mph NW9.7 kmh NW 0.9 mph1.4 kmh 29.84 in1010.5 mb 0.00 in0.0 mm 0.00 in/hr0.0 mm/hr 0.00 in0.0 mm
10:17 AM 64.4°F18.0°C 53.6°F12.0°C 68% 6.0 mph NW9.7 kmh NW 2.9 mph4.7 kmh 29.85 in1010.8 mb 0.00 in0.0 mm 0.00 in/hr0.0 mm/hr 0.00 in0.0 mm
10:12 AM 64.4°F18.0°C 53.6°F12.0°C 68% 6.0 mph W9.7 kmh W 6.9 mph11.1 kmh 29.85 in1010.8 mb 0.00 in0.0 mm 0.00 in/hr0.0 mm/hr 0.00 in0.0 mm
10:07 AM 64.2°F17.9°C 53.8°F12.1°C 69% 4.9 mph WNW7.9 kmh WNW 8.9 mph14.3 kmh 29.85 in1010.8 mb 0.00 in0.0 mm 0.00 in/hr0.0 mm/hr 0.00 in0.0 mm
10:02 AM 64.0°F17.8°C 53.6°F12.0°C 69% 6.0 mph W9.7 kmh W 2.9 mph4.7 kmh 29.85 in1010.8 mb 0.00 in0.0 mm 0.00 in/hr0.0 mm/hr 0.00 in0.0 mm
09:57 AM 64.0°F17.8°C 53.6°F12.0°C 69% 4.9 mph WSW7.9 kmh WSW 6.0 mph9.7 kmh 29.85 in1010.8 mb 0.00 in0.0 mm 0.00 in/hr0.0 mm/hr 0.00 in0.0 mm
09:52 AM 64.2°F17.9°C 54.3°F12.4°C 70% 2.9 mph WNW4.7 kmh WNW 8.1 mph13.0 kmh 29.85 in1010.8 mb 0.00 in0.0 mm 0.00 in/hr0.0 mm/hr 0.00 in0.0 mm
09:47 AM 63.9°F17.7°C 55.0°F12.8°C 73% 2.9 mph NNW4.7 kmh NNW 2.9 mph4.7 kmh 29.85 in1010.8 mb 0.00 in0.0 mm 0.00 in/hr0.0 mm/hr 0.00 in0.0 mm
09:42 AM 63.3°F17.4°C 53.8°F12.1°C 71% 4.0 mph NW6.4 kmh NW 2.0 mph3.2 kmh 29.85 in1010.8 mb 0.00 in0.0 mm 0.00 in/hr0.0 mm/hr 0.00 in0.0 mm
09:37 AM 63.1°F17.3°C 54.3°F12.4°C 73% 4.9 mph NNW7.9 kmh NNW 2.9 mph4.7 kmh 29.85 in1010.8 mb 0.00 in0.0 mm 0.00 in/hr0.0 mm/hr 0.00 in0.0 mm
09:32 AM 63.0°F17.2°C 54.5°F12.5°C 74% 4.9 mph WNW7.9 kmh WNW 6.0 mph9.7 kmh 29.85 in1010.8 mb 0.00 in0.0 mm 0.00 in/hr0.0 mm/hr 0.00 in0.0 mm
09:27 AM 62.8°F17.1°C 54.3°F12.4°C 74% 6.0 mph SW9.7 kmh SW 2.9 mph4.7 kmh 29.85 in1010.8 mb 0.00 in0.0 mm 0.00 in/hr0.0 mm/hr 0.00 in0.0 mm
09:22 AM 62.4°F16.9°C 54.3°F12.4°C 75% 6.0 mph W9.7 kmh W 6.0 mph9.7 kmh 29.85 in1010.8 mb 0.00 in0.0 mm 0.00 in/hr0.0 mm/hr 0.00 in0.0 mm
09:17 AM 62.2°F16.8°C 54.9°F12.7°C 77% 6.0 mph WNW9.7 kmh WNW 11.0 mph17.7 kmh 29.85 in1010.8 mb 0.00 in0.0 mm 0.00 in/hr0.0 mm/hr 0.00 in0.0 mm
09:12 AM 62.4°F16.9°C 54.7°F12.6°C 76% 4.0 mph WNW6.4 kmh WNW 8.1 mph13.0 kmh 29.85 in1010.8 mb 0.00 in0.0 mm 0.00 in/hr0.0 mm/hr 0.00 in0.0 mm
09:07 AM 62.6°F17.0°C 54.9°F12.7°C 76% 4.0 mph WNW6.4 kmh WNW 2.9 mph4.7 kmh 29.85 in1010.8 mb 0.00 in0.0 mm 0.00 in/hr0.0 mm/hr 0.00 in0.0 mm
09:02 AM 63.1°F17.3°C 54.3°F12.4°C 73% 4.9 mph NW7.9 kmh NW 2.0 mph3.2 kmh 29.85 in1010.8 mb 0.00 in0.0 mm 0.00 in/hr0.0 mm/hr 0.00 in0.0 mm
08:57 AM 63.7°F17.6°C 54.9°F12.7°C 73% 4.0 mph W6.4 kmh W 4.0 mph6.4 kmh 29.85 in1010.8 mb 0.00 in0.0 mm 0.00 in/hr0.0 mm/hr 0.00 in0.0 mm
08:52 AM 63.3°F17.4°C 55.6°F13.1°C 76% 4.0 mph W6.4 kmh W 6.9 mph11.1 kmh 29.85 in1010.8 mb 0.00 in0.0 mm 0.00 in/hr0.0 mm/hr 0.00 in0.0 mm
08:47 AM 63.0°F17.2°C 54.5°F12.5°C 74% 4.0 mph NW6.4 kmh NW 4.9 mph7.9 kmh 29.85 in1010.8 mb 0.00 in0.0 mm 0.00 in/hr0.0 mm/hr 0.00 in0.0 mm
08:42 AM 62.8°F17.1°C 55.8°F13.2°C 78% 4.0 mph WNW6.4 kmh WNW 6.0 mph9.7 kmh 29.84 in1010.5 mb 0.00 in0.0 mm 0.00 in/hr0.0 mm/hr 0.00 in0.0 mm
08:37 AM 62.2°F16.8°C 55.9°F13.3°C 80% 4.0 mph WNW6.4 kmh WNW 0.9 mph1.4 kmh 29.84 in1010.5 mb 0.00 in0.0 mm 0.00 in/hr0.0 mm/hr 0.00 in0.0 mm
08:32 AM 61.9°F16.6°C 56.3°F13.5°C 82% 4.0 mph NW6.4 kmh NW 4.9 mph7.9 kmh 29.84 in1010.5 mb 0.00 in0.0 mm 0.00 in/hr0.0 mm/hr 0.00 in0.0 mm
08:27 AM 61.2°F16.2°C 56.3°F13.5°C 84% 4.9 mph W7.9 kmh W 2.0 mph3.2 kmh 29.84 in1010.5 mb 0.00 in0.0 mm 0.00 in/hr0.0 mm/hr 0.00 in0.0 mm
08:22 AM 60.6°F15.9°C 56.5°F13.6°C 86% 4.9 mph WSW7.9 kmh WSW 2.9 mph4.7 kmh 29.85 in1010.8 mb 0.00 in0.0 mm 0.00 in/hr0.0 mm/hr 0.00 in0.0 mm
08:17 AM 60.3°F15.7°C 56.1°F13.4°C 86% 4.9 mph W7.9 kmh W 11.0 mph17.7 kmh 29.85 in1010.8 mb 0.00 in0.0 mm 0.00 in/hr0.0 mm/hr 0.00 in0.0 mm
08:12 AM 60.3°F15.7°C 56.1°F13.4°C 86% 4.9 mph W7.9 kmh W 4.0 mph6.4 kmh 29.85 in1010.8 mb 0.00 in0.0 mm 0.00 in/hr0.0 mm/hr 0.00 in0.0 mm
08:07 AM 60.3°F15.7°C 56.1°F13.4°C 86% 4.0 mph W6.4 kmh W 2.9 mph4.7 kmh 29.85 in1010.8 mb 0.00 in0.0 mm 0.00 in/hr0.0 mm/hr 0.00 in0.0 mm
08:02 AM 60.1°F15.6°C 56.1°F13.4°C 87% 2.9 mph W4.7 kmh W 2.9 mph4.7 kmh 29.85 in1010.8 mb 0.00 in0.0 mm 0.00 in/hr0.0 mm/hr 0.00 in0.0 mm
07:57 AM 59.9°F15.5°C 56.3°F13.5°C 88% 2.0 mph NW3.2 kmh NW 4.0 mph6.4 kmh 29.85 in1010.8 mb 0.00 in0.0 mm 0.00 in/hr0.0 mm/hr 0.00 in0.0 mm
07:52 AM 59.5°F15.3°C 56.3°F13.5°C 89% 2.9 mph WNW4.7 kmh WNW 2.9 mph4.7 kmh 29.85 in1010.8 mb 0.00 in0.0 mm 0.00 in/hr0.0 mm/hr 0.00 in0.0 mm
07:47 AM 59.5°F15.3°C 55.9°F13.3°C 88% 4.0 mph W6.4 kmh W 2.9 mph4.7 kmh 29.85 in1010.8 mb 0.00 in0.0 mm 0.00 in/hr0.0 mm/hr 0.00 in0.0 mm
07:42 AM 59.4°F15.2°C 56.1°F13.4°C 89% 2.9 mph WSW4.7 kmh WSW 10.1 mph16.3 kmh 29.85 in1010.8 mb 0.00 in0.0 mm 0.00 in/hr0.0 mm/hr 0.00 in0.0 mm
07:37 AM 59.0°F15.0°C 55.8°F13.2°C 89% 4.0 mph WSW6.4 kmh WSW 4.9 mph7.9 kmh 29.85 in1010.8 mb 0.00 in0.0 mm 0.00 in/hr0.0 mm/hr 0.00 in0.0 mm
07:32 AM 58.8°F14.9°C 55.6°F13.1°C 89% 4.9 mph W7.9 kmh W 4.0 mph6.4 kmh 29.85 in1010.8 mb 0.00 in0.0 mm 0.00 in/hr0.0 mm/hr 0.00 in0.0 mm
07:27 AM 58.8°F14.9°C 55.6°F13.1°C 89% 4.9 mph WSW7.9 kmh WSW 2.0 mph3.2 kmh 29.85 in1010.8 mb 0.00 in0.0 mm 0.00 in/hr0.0 mm/hr 0.00 in0.0 mm
07:22 AM 58.6°F14.8°C 55.8°F13.2°C 90% 4.9 mph WSW7.9 kmh WSW 6.9 mph11.1 kmh 29.85 in1010.8 mb 0.00 in0.0 mm 0.00 in/hr0.0 mm/hr 0.00 in0.0 mm
07:17 AM 58.5°F14.7°C 55.6°F13.1°C 90% 4.0 mph WSW6.4 kmh WSW 0.9 mph1.4 kmh 29.84 in1010.5 mb 0.00 in0.0 mm 0.00 in/hr0.0 mm/hr 0.00 in0.0 mm
07:12 AM 58.1°F14.5°C 55.4°F13.0°C 91% 2.9 mph W4.7 kmh W 6.0 mph9.7 kmh 29.84 in1010.5 mb 0.00 in0.0 mm 0.00 in/hr0.0 mm/hr 0.00 in0.0 mm
07:07 AM 57.9°F14.4°C 55.2°F12.9°C 91% 2.9 mph WSW4.7 kmh WSW 2.9 mph4.7 kmh 29.84 in1010.5 mb 0.00 in0.0 mm 0.00 in/hr0.0 mm/hr 0.00 in0.0 mm
07:02 AM 57.9°F14.4°C 55.2°F12.9°C 91% 4.0 mph WNW6.4 kmh WNW 2.9 mph4.7 kmh 29.84 in1010.5 mb 0.00 in0.0 mm 0.00 in/hr0.0 mm/hr 0.00 in0.0 mm
06:57 AM 57.7°F14.3°C 55.2°F12.9°C 91% 2.9 mph WSW4.7 kmh WSW 2.0 mph3.2 kmh 29.84 in1010.5 mb 0.00 in0.0 mm 0.00 in/hr0.0 mm/hr 0.00 in0.0 mm
06:52 AM 57.6°F14.2°C 55.2°F12.9°C 92% 2.9 mph WSW4.7 kmh WSW 2.9 mph4.7 kmh 29.84 in1010.5 mb 0.00 in0.0 mm 0.00 in/hr0.0 mm/hr 0.00 in0.0 mm
06:47 AM 57.2°F14.0°C 54.9°F12.7°C 92% 2.9 mph WSW4.7 kmh WSW 2.0 mph3.2 kmh 29.84 in1010.5 mb 0.00 in0.0 mm 0.00 in/hr0.0 mm/hr 0.00 in0.0 mm
06:42 AM 56.8°F13.8°C 54.5°F12.5°C 92% 2.0 mph WSW3.2 kmh WSW 4.0 mph6.4 kmh 29.83 in1010.2 mb 0.00 in0.0 mm 0.00 in/hr0.0 mm/hr 0.00 in0.0 mm
06:37 AM 56.8°F13.8°C 54.5°F12.5°C 92% 2.0 mph WSW3.2 kmh WSW 2.9 mph4.7 kmh 29.83 in1010.2 mb 0.00 in0.0 mm 0.00 in/hr0.0 mm/hr 0.00 in0.0 mm
06:32 AM 56.7°F13.7°C 54.1°F12.3°C 91% 2.9 mph W4.7 kmh W 0.9 mph1.4 kmh 29.83 in1010.2 mb 0.00 in0.0 mm 0.00 in/hr0.0 mm/hr 0.00 in0.0 mm
06:27 AM 56.7°F13.7°C 54.1°F12.3°C 91% 2.9 mph SW4.7 kmh SW 4.0 mph6.4 kmh 29.83 in1010.2 mb 0.00 in0.0 mm 0.00 in/hr0.0 mm/hr 0.00 in0.0 mm
06:22 AM 56.7°F13.7°C 54.1°F12.3°C 91% 2.9 mph WSW4.7 kmh WSW 4.9 mph7.9 kmh 29.83 in1010.2 mb 0.00 in0.0 mm 0.00 in/hr0.0 mm/hr 0.00 in0.0 mm
06:17 AM 56.7°F13.7°C 54.1°F12.3°C 91% 4.0 mph W6.4 kmh W 2.0 mph3.2 kmh 29.83 in1010.2 mb 0.00 in0.0 mm 0.00 in/hr0.0 mm/hr 0.00 in0.0 mm
06:12 AM 56.8°F13.8°C 54.3°F12.4°C 91% 4.0 mph W6.4 kmh W 2.0 mph3.2 kmh 29.83 in1010.2 mb 0.00 in0.0 mm 0.00 in/hr0.0 mm/hr 0.00 in0.0 mm
06:07 AM 56.8°F13.8°C 54.3°F12.4°C 91% 4.0 mph WSW6.4 kmh WSW 4.9 mph7.9 kmh 29.83 in1010.2 mb 0.00 in0.0 mm 0.00 in/hr0.0 mm/hr 0.00 in0.0 mm
06:02 AM 56.8°F13.8°C 54.0°F12.2°C 90% 2.9 mph W4.7 kmh W 2.9 mph4.7 kmh 29.83 in1010.2 mb 0.00 in0.0 mm 0.00 in/hr0.0 mm/hr 0.00 in0.0 mm
05:57 AM 57.0°F13.9°C 54.1°F12.3°C 90% 2.0 mph W3.2 kmh W 2.9 mph4.7 kmh 29.83 in1010.2 mb 0.00 in0.0 mm 0.00 in/hr0.0 mm/hr 0.00 in0.0 mm
05:52 AM 57.0°F13.9°C 54.1°F12.3°C 90% 2.9 mph NW4.7 kmh NW 2.0 mph3.2 kmh 29.83 in1010.2 mb 0.00 in0.0 mm 0.00 in/hr0.0 mm/hr 0.00 in0.0 mm
05:47 AM 57.4°F14.1°C 54.5°F12.5°C 90% 2.9 mph WSW4.7 kmh WSW 0.9 mph1.4 kmh 29.83 in1010.2 mb 0.00 in0.0 mm 0.00 in/hr0.0 mm/hr 0.00 in0.0 mm
05:42 AM 57.4°F14.1°C 54.1°F12.3°C 89% 2.9 mph W4.7 kmh W 2.9 mph4.7 kmh 29.83 in1010.2 mb 0.00 in0.0 mm 0.00 in/hr0.0 mm/hr 0.00 in0.0 mm
05:37 AM 57.6°F14.2°C 54.3°F12.4°C 89% 2.9 mph WSW4.7 kmh WSW -- 29.83 in1010.2 mb 0.00 in0.0 mm 0.00 in/hr0.0 mm/hr 0.00 in0.0 mm
05:32 AM 57.6°F14.2°C 54.3°F12.4°C 89% 2.9 mph WSW4.7 kmh WSW 2.9 mph4.7 kmh 29.82 in1009.8 mb 0.00 in0.0 mm 0.00 in/hr0.0 mm/hr 0.00 in0.0 mm
05:27 AM 57.7°F14.3°C 54.1°F12.3°C 88% 2.9 mph W4.7 kmh W 0.9 mph1.4 kmh 29.82 in1009.8 mb 0.00 in0.0 mm 0.00 in/hr0.0 mm/hr 0.00 in0.0 mm
05:22 AM 57.7°F14.3°C 54.1°F12.3°C 88% 2.0 mph SW3.2 kmh SW 0.9 mph1.4 kmh 29.83 in1010.2 mb 0.00 in0.0 mm 0.00 in/hr0.0 mm/hr 0.00 in0.0 mm
05:17 AM 57.9°F14.4°C 54.3°F12.4°C 88% 2.0 mph WSW3.2 kmh WSW 2.9 mph4.7 kmh 29.82 in1009.8 mb 0.00 in0.0 mm 0.00 in/hr0.0 mm/hr 0.00 in0.0 mm
05:12 AM 58.1°F14.5°C 54.5°F12.5°C 88% 2.0 mph W3.2 kmh W 2.0 mph3.2 kmh 29.82 in1009.8 mb 0.00 in0.0 mm 0.00 in/hr0.0 mm/hr 0.00 in0.0 mm
05:07 AM 58.3°F14.6°C 54.5°F12.5°C 87% 2.9 mph WSW4.7 kmh WSW 2.0 mph3.2 kmh 29.82 in1009.8 mb 0.00 in0.0 mm 0.00 in/hr0.0 mm/hr 0.00 in0.0 mm
05:02 AM 58.3°F14.6°C 54.5°F12.5°C 87% 2.9 mph W4.7 kmh W 2.0 mph3.2 kmh 29.82 in1009.8 mb 0.00 in0.0 mm 0.00 in/hr0.0 mm/hr 0.00 in0.0 mm
04:57 AM 58.3°F14.6°C 54.5°F12.5°C 87% 2.9 mph SW4.7 kmh SW 2.9 mph4.7 kmh 29.82 in1009.8 mb 0.00 in0.0 mm 0.00 in/hr0.0 mm/hr 0.00 in0.0 mm
04:52 AM 58.5°F14.7°C 54.7°F12.6°C 87% 2.0 mph W3.2 kmh W 2.9 mph4.7 kmh 29.82 in1009.8 mb 0.00 in0.0 mm 0.00 in/hr0.0 mm/hr 0.00 in0.0 mm
04:47 AM 58.5°F14.7°C 54.7°F12.6°C 87% 2.9 mph W4.7 kmh W 4.0 mph6.4 kmh 29.82 in1009.8 mb 0.00 in0.0 mm 0.00 in/hr0.0 mm/hr 0.00 in0.0 mm
04:42 AM 58.5°F14.7°C 54.7°F12.6°C 87% 2.9 mph W4.7 kmh W 2.9 mph4.7 kmh 29.82 in1009.8 mb 0.00 in0.0 mm 0.00 in/hr0.0 mm/hr 0.00 in0.0 mm
04:37 AM 58.6°F14.8°C 54.9°F12.7°C 87% 2.9 mph WSW4.7 kmh WSW 2.9 mph4.7 kmh 29.82 in1009.8 mb 0.00 in0.0 mm 0.00 in/hr0.0 mm/hr 0.00 in0.0 mm
04:32 AM 58.6°F14.8°C 54.9°F12.7°C 87% 2.9 mph WSW4.7 kmh WSW 2.9 mph4.7 kmh 29.82 in1009.8 mb 0.00 in0.0 mm 0.00 in/hr0.0 mm/hr 0.00 in0.0 mm
04:27 AM 58.8°F14.9°C 55.0°F12.8°C 87% 2.0 mph WSW3.2 kmh WSW 2.9 mph4.7 kmh 29.81 in1009.5 mb 0.00 in0.0 mm 0.00 in/hr0.0 mm/hr 0.00 in0.0 mm
04:22 AM 59.0°F15.0°C 54.9°F12.7°C 86% 2.9 mph WSW4.7 kmh WSW 2.9 mph4.7 kmh 29.81 in1009.5 mb 0.00 in0.0 mm 0.00 in/hr0.0 mm/hr 0.00 in0.0 mm
04:17 AM 59.2°F15.1°C 55.0°F12.8°C 86% 2.0 mph W3.2 kmh W 0.9 mph1.4 kmh 29.82 in1009.8 mb 0.00 in0.0 mm 0.00 in/hr0.0 mm/hr 0.00 in0.0 mm
04:12 AM 59.4°F15.2°C 55.2°F12.9°C 86% 2.0 mph W3.2 kmh W 4.0 mph6.4 kmh 29.82 in1009.8 mb 0.00 in0.0 mm 0.00 in/hr0.0 mm/hr 0.00 in0.0 mm
04:07 AM 59.5°F15.3°C 55.0°F12.8°C 85% 2.0 mph W3.2 kmh W 0.9 mph1.4 kmh 29.82 in1009.8 mb 0.00 in0.0 mm 0.00 in/hr0.0 mm/hr 0.00 in0.0 mm
04:02 AM 59.9°F15.5°C 55.4°F13.0°C 85% 2.9 mph WSW4.7 kmh WSW 2.9 mph4.7 kmh 29.82 in1009.8 mb 0.00 in0.0 mm 0.00 in/hr0.0 mm/hr 0.00 in0.0 mm
03:57 AM 60.1°F15.6°C 55.6°F13.1°C 85% 2.9 mph W4.7 kmh W 4.0 mph6.4 kmh 29.82 in1009.8 mb 0.00 in0.0 mm 0.00 in/hr0.0 mm/hr 0.00 in0.0 mm
03:52 AM 60.3°F15.7°C 55.4°F13.0°C 84% 4.0 mph WSW6.4 kmh WSW 4.0 mph6.4 kmh 29.81 in1009.5 mb 0.00 in0.0 mm 0.00 in/hr0.0 mm/hr 0.00 in0.0 mm
03:47 AM 60.4°F15.8°C 55.6°F13.1°C 84% 4.0 mph W6.4 kmh W 2.9 mph4.7 kmh 29.82 in1009.8 mb 0.00 in0.0 mm 0.00 in/hr0.0 mm/hr 0.00 in0.0 mm
03:42 AM 60.6°F15.9°C 55.8°F13.2°C 84% 2.9 mph W4.7 kmh W 8.1 mph13.0 kmh 29.82 in1009.8 mb 0.00 in0.0 mm 0.00 in/hr0.0 mm/hr 0.00 in0.0 mm
03:37 AM 61.0°F16.1°C 56.1°F13.4°C 84% 2.9 mph WSW4.7 kmh WSW 4.9 mph7.9 kmh 29.82 in1009.8 mb 0.00 in0.0 mm 0.00 in/hr0.0 mm/hr 0.00 in0.0 mm
03:32 AM 61.2°F16.2°C 55.9°F13.3°C 83% 2.9 mph W4.7 kmh W 6.0 mph9.7 kmh 29.82 in1009.8 mb 0.00 in0.0 mm 0.00 in/hr0.0 mm/hr 0.00 in0.0 mm
03:27 AM 61.2°F16.2°C 55.9°F13.3°C 83% 2.9 mph WSW4.7 kmh WSW 4.0 mph6.4 kmh 29.82 in1009.8 mb 0.00 in0.0 mm 0.00 in/hr0.0 mm/hr 0.00 in0.0 mm
03:22 AM 61.3°F16.3°C 56.5°F13.6°C 84% 2.0 mph WSW3.2 kmh WSW 2.0 mph3.2 kmh 29.82 in1009.8 mb 0.00 in0.0 mm 0.00 in/hr0.0 mm/hr 0.00 in0.0 mm
03:17 AM 61.3°F16.3°C 56.1°F13.4°C 83% 0.9 mph WSW1.4 kmh WSW 2.0 mph3.2 kmh 29.82 in1009.8 mb 0.00 in0.0 mm 0.00 in/hr0.0 mm/hr 0.00 in0.0 mm
03:12 AM 61.3°F16.3°C 56.5°F13.6°C 84% 0.9 mph W1.4 kmh W 2.9 mph4.7 kmh 29.82 in1009.8 mb 0.00 in0.0 mm 0.00 in/hr0.0 mm/hr 0.00 in0.0 mm
03:07 AM 61.3°F16.3°C 56.5°F13.6°C 84% 0.9 mph WSW1.4 kmh WSW 0.9 mph1.4 kmh 29.82 in1009.8 mb 0.00 in0.0 mm 0.00 in/hr0.0 mm/hr 0.00 in0.0 mm
03:02 AM 61.3°F16.3°C 56.5°F13.6°C 84% 2.0 mph WSW3.2 kmh WSW 2.0 mph3.2 kmh 29.82 in1009.8 mb 0.00 in0.0 mm 0.00 in/hr0.0 mm/hr 0.00 in0.0 mm
02:57 AM 61.5°F16.4°C 56.7°F13.7°C 84% 0.9 mph W1.4 kmh W 0.9 mph1.4 kmh 29.82 in1009.8 mb 0.00 in0.0 mm 0.00 in/hr0.0 mm/hr 0.00 in0.0 mm
02:52 AM 61.9°F16.6°C 56.7°F13.7°C 83% Calm Calm 0.9 mph1.4 kmh 29.82 in1009.8 mb 0.00 in0.0 mm 0.00 in/hr0.0 mm/hr 0.00 in0.0 mm
02:47 AM 62.1°F16.7°C 56.8°F13.8°C 83% Calm Calm -- 29.82 in1009.8 mb 0.00 in0.0 mm 0.00 in/hr0.0 mm/hr 0.00 in0.0 mm
02:42 AM 62.1°F16.7°C 56.8°F13.8°C 83% Calm Calm -- 29.83 in1010.2 mb 0.00 in0.0 mm 0.00 in/hr0.0 mm/hr 0.00 in0.0 mm
02:37 AM 62.2°F16.8°C 56.7°F13.7°C 82% 0.9 mph W1.4 kmh W -- 29.83 in1010.2 mb 0.00 in0.0 mm 0.00 in/hr0.0 mm/hr 0.00 in0.0 mm
02:32 AM 62.2°F16.8°C 56.7°F13.7°C 82% 0.9 mph W1.4 kmh W -- 29.83 in1010.2 mb 0.00 in0.0 mm 0.00 in/hr0.0 mm/hr 0.00 in0.0 mm
02:27 AM 62.2°F16.8°C 56.3°F13.5°C 81% Calm Calm -- 29.83 in1010.2 mb 0.00 in0.0 mm 0.00 in/hr0.0 mm/hr 0.00 in0.0 mm
02:22 AM 62.4°F16.9°C 56.8°F13.8°C 82% 0.9 mph W1.4 kmh W -- 29.83 in1010.2 mb 0.00 in0.0 mm 0.00 in/hr0.0 mm/hr 0.00 in0.0 mm
02:17 AM 62.4°F16.9°C 56.8°F13.8°C 82% 0.9 mph W1.4 kmh W 0.9 mph1.4 kmh 29.83 in1010.2 mb 0.00 in0.0 mm 0.00 in/hr0.0 mm/hr 0.00 in0.0 mm
02:12 AM 62.6°F17.0°C 56.7°F13.7°C 81% 0.9 mph W1.4 kmh W 2.0 mph3.2 kmh 29.83 in1010.2 mb 0.00 in0.0 mm 0.00 in/hr0.0 mm/hr 0.00 in0.0 mm
02:07 AM 62.6°F17.0°C 56.7°F13.7°C 81% 0.9 mph W1.4 kmh W -- 29.83 in1010.2 mb 0.00 in0.0 mm 0.00 in/hr0.0 mm/hr 0.00 in0.0 mm
02:02 AM 62.6°F17.0°C 56.7°F13.7°C 81% 0.9 mph W1.4 kmh W -- 29.84 in1010.5 mb 0.00 in0.0 mm 0.00 in/hr0.0 mm/hr 0.00 in0.0 mm
01:57 AM 62.6°F17.0°C 56.7°F13.7°C 81% 0.9 mph W1.4 kmh W -- 29.84 in1010.5 mb 0.00 in0.0 mm 0.00 in/hr0.0 mm/hr 0.00 in0.0 mm
01:52 AM 62.6°F17.0°C 56.7°F13.7°C 81% 0.9 mph W1.4 kmh W 2.0 mph3.2 kmh 29.84 in1010.5 mb 0.00 in0.0 mm 0.00 in/hr0.0 mm/hr 0.00 in0.0 mm
01:47 AM 62.6°F17.0°C 56.7°F13.7°C 81% 0.9 mph W1.4 kmh W -- 29.84 in1010.5 mb 0.00 in0.0 mm 0.00 in/hr0.0 mm/hr 0.00 in0.0 mm
01:42 AM 62.6°F17.0°C 56.3°F13.5°C 80% 0.9 mph W1.4 kmh W -- 29.84 in1010.5 mb 0.00 in0.0 mm 0.00 in/hr0.0 mm/hr 0.00 in0.0 mm
01:37 AM 62.8°F17.1°C 56.5°F13.6°C 80% 0.9 mph W1.4 kmh W 0.9 mph1.4 kmh 29.84 in1010.5 mb 0.00 in0.0 mm 0.00 in/hr0.0 mm/hr 0.00 in0.0 mm
01:32 AM 62.8°F17.1°C 56.5°F13.6°C 80% 0.9 mph W1.4 kmh W -- 29.84 in1010.5 mb 0.00 in0.0 mm 0.00 in/hr0.0 mm/hr 0.00 in0.0 mm
01:27 AM 62.8°F17.1°C 56.5°F13.6°C 80% 0.9 mph W1.4 kmh W 0.9 mph1.4 kmh 29.84 in1010.5 mb 0.00 in0.0 mm 0.00 in/hr0.0 mm/hr 0.00 in0.0 mm
01:22 AM 63.0°F17.2°C 56.7°F13.7°C 80% 0.9 mph W1.4 kmh W -- 29.84 in1010.5 mb 0.00 in0.0 mm 0.00 in/hr0.0 mm/hr 0.00 in0.0 mm
01:17 AM 63.0°F17.2°C 56.7°F13.7°C 80% 0.9 mph WNW1.4 kmh WNW -- 29.84 in1010.5 mb 0.00 in0.0 mm 0.00 in/hr0.0 mm/hr 0.00 in0.0 mm
01:12 AM 63.0°F17.2°C 56.7°F13.7°C 80% 2.0 mph WNW3.2 kmh WNW 0.9 mph1.4 kmh 29.85 in1010.8 mb 0.00 in0.0 mm 0.00 in/hr0.0 mm/hr 0.00 in0.0 mm
01:07 AM 63.1°F17.3°C 56.8°F13.8°C 80% 2.0 mph W3.2 kmh W 0.9 mph1.4 kmh 29.85 in1010.8 mb 0.00 in0.0 mm 0.00 in/hr0.0 mm/hr 0.00 in0.0 mm
01:02 AM 63.1°F17.3°C 56.8°F13.8°C 80% 2.0 mph W3.2 kmh W -- 29.85 in1010.8 mb 0.00 in0.0 mm 0.00 in/hr0.0 mm/hr 0.00 in0.0 mm
12:57 AM 63.1°F17.3°C 56.8°F13.8°C 80% 2.0 mph W3.2 kmh W 0.9 mph1.4 kmh 29.85 in1010.8 mb 0.00 in0.0 mm 0.00 in/hr0.0 mm/hr 0.00 in0.0 mm
12:52 AM 63.3°F17.4°C 56.7°F13.7°C 79% 0.9 mph WSW1.4 kmh WSW 4.0 mph6.4 kmh 29.85 in1010.8 mb 0.00 in0.0 mm 0.00 in/hr0.0 mm/hr 0.00 in0.0 mm
12:47 AM 63.5°F17.5°C 57.2°F14.0°C 80% 2.0 mph W3.2 kmh W 2.0 mph3.2 kmh 29.86 in1011.2 mb 0.00 in0.0 mm 0.00 in/hr0.0 mm/hr 0.00 in0.0 mm
12:42 AM 63.7°F17.6°C 57.0°F13.9°C 79% 2.0 mph W3.2 kmh W -- 29.86 in1011.2 mb 0.00 in0.0 mm 0.00 in/hr0.0 mm/hr 0.00 in0.0 mm
12:37 AM 63.7°F17.6°C 57.0°F13.9°C 79% 2.0 mph W3.2 kmh W 4.0 mph6.4 kmh 29.86 in1011.2 mb 0.00 in0.0 mm 0.00 in/hr0.0 mm/hr 0.00 in0.0 mm
12:32 AM 63.7°F17.6°C 57.0°F13.9°C 79% 2.0 mph WNW3.2 kmh WNW 2.0 mph3.2 kmh 29.86 in1011.2 mb 0.00 in0.0 mm 0.00 in/hr0.0 mm/hr 0.00 in0.0 mm
12:27 AM 63.9°F17.7°C 57.2°F14.0°C 79% 2.0 mph W3.2 kmh W -- 29.86 in1011.2 mb 0.00 in0.0 mm 0.00 in/hr0.0 mm/hr 0.00 in0.0 mm
12:22 AM 63.9°F17.7°C 57.2°F14.0°C 79% 0.9 mph WNW1.4 kmh WNW 0.9 mph1.4 kmh 29.86 in1011.2 mb 0.00 in0.0 mm 0.00 in/hr0.0 mm/hr 0.00 in0.0 mm
12:17 AM 64.0°F17.8°C 57.4°F14.1°C 79% 0.9 mph WNW1.4 kmh WNW 2.0 mph3.2 kmh 29.86 in1011.2 mb 0.00 in0.0 mm 0.00 in/hr0.0 mm/hr 0.00 in0.0 mm
12:12 AM 64.2°F17.9°C 57.6°F14.2°C 79% 0.9 mph NW1.4 kmh NW -- 29.86 in1011.2 mb 0.00 in0.0 mm 0.00 in/hr0.0 mm/hr 0.00 in0.0 mm
12:07 AM 64.2°F17.9°C 57.2°F14.0°C 78% 0.9 mph NW1.4 kmh NW -- 29.86 in1011.2 mb 0.00 in0.0 mm 0.00 in/hr0.0 mm/hr 0.00 in0.0 mm
12:02 AM 64.6°F18.1°C 57.6°F14.2°C 78% 0.9 mph W1.4 kmh W -- 29.86 in1011.2 mb 0.00 in0.0 mm 0.00 in/hr0.0 mm/hr 0.21 in5.3 mm